Time,TemperatureF,DewpointF,PressureIn,WindDirection,WindDirectionDegrees,WindSpeedMPH,WindSpeedGustMPH,Humidity,HourlyPrecipIn,Conditions,Clouds,dailyrainin,SolarRadiationWatts/m^2,SoftwareType,DateUTC
2013-12-19 00:03:00,22.0,18.0,-100.00,SW,226,1.0,8.0,84,0.00,,,0.00,0.000000,,2013-12-19 05:03:00,
2013-12-19 00:12:00,22.0,18.0,-100.00,SW,226,1.0,8.0,84,0.00,,,0.00,0.000000,,2013-12-19 05:12:00,
2013-12-19 00:42:00,23.0,19.0,-100.00,SW,215,2.0,4.0,84,0.00,,,-99.99,0.000000,,2013-12-19 05:42:00,
2013-12-19 00:52:00,23.0,19.0,-100.00,SW,215,2.0,4.0,84,0.00,,,-99.99,0.000000,,2013-12-19 05:52:00,
2013-12-19 01:02:00,23.0,19.0,-100.00,SW,215,2.0,4.0,84,0.00,,,-99.99,0.000000,,2013-12-19 06:02:00,
2013-12-19 01:12:00,23.0,19.0,-100.00,SW,215,2.0,4.0,84,0.00,,,-99.99,0.000000,,2013-12-19 06:12:00,
2013-12-19 01:42:00,24.0,20.0,-100.00,South,174,2.0,4.0,84,0.00,,,0.00,0.000000,,2013-12-19 06:42:00,
2013-12-19 01:52:00,24.0,20.0,-100.00,South,174,2.0,4.0,84,0.00,,,0.00,0.000000,,2013-12-19 06:52:00,
2013-12-19 02:02:00,24.0,20.0,-100.00,South,174,2.0,4.0,84,0.00,,,0.00,0.000000,,2013-12-19 07:02:00,
2013-12-19 02:12:00,24.0,20.0,-100.00,South,174,2.0,4.0,84,0.00,,,0.00,0.000000,,2013-12-19 07:12:00,
2013-12-19 02:42:00,25.0,20.0,-100.00,South,184,2.0,6.0,82,0.00,,,0.00,0.000000,,2013-12-19 07:42:00,
2013-12-19 02:52:00,25.0,20.0,-100.00,South,184,2.0,6.0,82,0.00,,,0.00,0.000000,,2013-12-19 07:52:00,
2013-12-19 03:02:00,25.0,20.0,-100.00,South,184,2.0,6.0,82,0.00,,,0.00,0.000000,,2013-12-19 08:02:00,
2013-12-19 03:11:00,25.0,20.0,-100.00,South,184,2.0,6.0,82,0.00,,,0.00,0.000000,,2013-12-19 08:11:00,
2013-12-19 03:42:00,27.0,21.0,-100.00,South,175,4.0,8.0,78,0.00,,,0.00,0.000000,,2013-12-19 08:42:00,
2013-12-19 03:52:00,27.0,21.0,-100.00,South,175,4.0,8.0,78,0.00,,,0.00,0.000000,,2013-12-19 08:52:00,
2013-12-19 04:02:00,27.0,21.0,-100.00,South,175,4.0,8.0,78,0.00,,,0.00,0.000000,,2013-12-19 09:02:00,
2013-12-19 04:11:00,27.0,21.0,-100.00,South,175,4.0,8.0,78,0.00,,,0.00,0.000000,,2013-12-19 09:11:00,
2013-12-19 04:43:00,26.0,21.0,-100.00,South,178,3.0,7.0,82,0.00,,,0.00,0.000000,,2013-12-19 09:43:00,
2013-12-19 04:54:00,26.0,21.0,-100.00,South,178,3.0,7.0,82,0.00,,,0.00,0.000000,,2013-12-19 09:54:00,
2013-12-19 05:03:00,26.0,21.0,-100.00,South,178,3.0,7.0,82,0.00,,,0.00,0.000000,,2013-12-19 10:03:00,
2013-12-19 05:12:00,26.0,21.0,-100.00,South,178,3.0,7.0,82,0.00,,,0.00,0.000000,,2013-12-19 10:12:00,
2013-12-19 05:43:00,26.0,22.0,-100.00,South,174,5.0,8.0,83,0.00,,,0.00,0.000000,,2013-12-19 10:43:00,
2013-12-19 05:53:00,26.0,22.0,-100.00,South,174,5.0,8.0,83,0.00,,,0.00,0.000000,,2013-12-19 10:53:00,
2013-12-19 06:03:00,26.0,22.0,-100.00,South,174,5.0,8.0,83,0.00,,,0.00,0.000000,,2013-12-19 11:03:00,
2013-12-19 06:12:00,26.0,22.0,-100.00,South,174,5.0,8.0,83,0.00,,,0.00,0.000000,,2013-12-19 11:12:00,
2013-12-19 06:42:00,25.0,20.0,-100.00,South,175,4.0,10.0,81,0.00,,,0.00,0.000000,,2013-12-19 11:42:00,
2013-12-19 06:53:00,25.0,20.0,-100.00,South,175,4.0,10.0,81,0.00,,,0.00,0.000000,,2013-12-19 11:53:00,
2013-12-19 07:02:00,25.0,20.0,-100.00,South,175,4.0,10.0,81,0.00,,,0.00,0.000000,,2013-12-19 12:02:00,
2013-12-19 07:12:00,25.0,20.0,-100.00,South,175,4.0,10.0,81,0.00,,,0.00,0.000000,,2013-12-19 12:12:00,
2013-12-19 07:42:00,24.0,19.0,-100.00,South,182,5.0,9.0,81,0.00,,,0.00,0.000000,,2013-12-19 12:42:00,
2013-12-19 07:52:00,24.0,19.0,-100.00,South,182,5.0,9.0,81,0.00,,,0.00,0.000000,,2013-12-19 12:52:00,
2013-12-19 08:02:00,24.0,19.0,-100.00,South,182,5.0,9.0,81,0.00,,,0.00,0.000000,,2013-12-19 13:02:00,
2013-12-19 08:11:00,24.0,19.0,-100.00,South,182,5.0,9.0,81,0.00,,,0.00,0.000000,,2013-12-19 13:11:00,
2013-12-19 08:42:00,26.0,19.0,-100.00,South,172,7.0,13.0,75,0.00,,,0.00,23.000000,,2013-12-19 13:42:00,
2013-12-19 08:52:00,26.0,19.0,-100.00,South,172,7.0,13.0,75,0.00,,,0.00,23.000000,,2013-12-19 13:52:00,
2013-12-19 09:02:00,26.0,19.0,-100.00,South,172,7.0,13.0,75,0.00,,,0.00,23.000000,,2013-12-19 14:02:00,
2013-12-19 09:12:00,26.0,19.0,-100.00,South,172,7.0,13.0,75,0.00,,,0.00,23.000000,,2013-12-19 14:12:00,
2013-12-19 09:42:00,29.0,19.0,-100.00,South,177,6.0,12.0,67,0.00,,,0.00,112.000000,,2013-12-19 14:42:00,
2013-12-19 09:53:00,29.0,19.0,-100.00,South,177,6.0,12.0,67,0.00,,,0.00,112.000000,,2013-12-19 14:53:00,
2013-12-19 10:02:00,29.0,19.0,-100.00,South,177,6.0,12.0,67,0.00,,,0.00,112.000000,,2013-12-19 15:02:00,
2013-12-19 10:12:00,29.0,19.0,-100.00,South,177,6.0,12.0,67,0.00,,,0.00,112.000000,,2013-12-19 15:12:00,
2013-12-19 10:43:00,32.0,20.0,-100.00,South,181,7.0,14.0,61,0.00,,,0.00,158.000000,,2013-12-19 15:43:00,
2013-12-19 10:54:00,32.0,20.0,-100.00,South,181,7.0,14.0,61,0.00,,,0.00,158.000000,,2013-12-19 15:54:00,
2013-12-19 11:03:00,32.0,20.0,-100.00,South,181,7.0,14.0,61,0.00,,,0.00,158.000000,,2013-12-19 16:03:00,
2013-12-19 11:13:00,32.0,20.0,-100.00,South,181,7.0,14.0,61,0.00,,,0.00,158.000000,,2013-12-19 16:13:00,
2013-12-19 11:43:00,35.0,21.0,-100.00,South,176,6.0,13.0,56,0.00,,,0.00,168.000000,,2013-12-19 16:43:00,
2013-12-19 11:53:00,35.0,21.0,-100.00,South,176,6.0,13.0,56,0.00,,,0.00,168.000000,,2013-12-19 16:53:00,
2013-12-19 12:02:00,35.0,21.0,-100.00,South,176,6.0,13.0,56,0.00,,,0.00,168.000000,,2013-12-19 17:02:00,
2013-12-19 12:12:00,35.0,21.0,-100.00,South,176,6.0,13.0,56,0.00,,,0.00,168.000000,,2013-12-19 17:12:00,
2013-12-19 12:42:00,37.0,21.0,-100.00,South,183,6.0,13.0,53,0.03,,,0.03,182.000000,,2013-12-19 17:42:00,
2013-12-19 12:53:00,37.0,21.0,-100.00,South,183,6.0,13.0,53,0.03,,,0.03,182.000000,,2013-12-19 17:53:00,
2013-12-19 13:02:00,37.0,21.0,-100.00,South,183,6.0,13.0,53,0.03,,,0.03,182.000000,,2013-12-19 18:02:00,
2013-12-19 13:12:00,37.0,21.0,-100.00,South,183,6.0,13.0,53,0.03,,,0.03,182.000000,,2013-12-19 18:12:00,
2013-12-19 13:42:00,39.0,22.0,-100.00,South,176,6.0,14.0,50,0.06,,,0.09,177.000000,,2013-12-19 18:42:00,
2013-12-19 13:52:00,39.0,22.0,-100.00,South,176,6.0,14.0,50,0.06,,,0.09,177.000000,,2013-12-19 18:52:00,
2013-12-19 14:02:00,39.0,22.0,-100.00,South,176,6.0,14.0,50,0.06,,,0.09,177.000000,,2013-12-19 19:02:00,
2013-12-19 14:11:00,39.0,22.0,-100.00,South,176,6.0,14.0,50,0.06,,,0.09,177.000000,,2013-12-19 19:11:00,
2013-12-19 14:42:00,39.0,22.0,-100.00,South,174,8.0,12.0,50,0.04,,,0.13,128.000000,,2013-12-19 19:42:00,
2013-12-19 14:52:00,39.0,22.0,-100.00,South,174,8.0,12.0,50,0.04,,,0.13,128.000000,,2013-12-19 19:52:00,
2013-12-19 15:01:00,39.0,22.0,-100.00,South,174,8.0,12.0,50,0.04,,,0.13,128.000000,,2013-12-19 20:01:00,
2013-12-19 15:11:00,39.0,22.0,-100.00,South,174,8.0,12.0,50,0.04,,,0.13,128.000000,,2013-12-19 20:11:00,
2013-12-19 15:42:00,39.0,22.0,-100.00,SSW,196,5.0,11.0,50,0.02,,,0.15,83.000000,,2013-12-19 20:42:00,
2013-12-19 15:52:00,39.0,22.0,-100.00,SSW,196,5.0,11.0,50,0.02,,,0.15,83.000000,,2013-12-19 20:52:00,
2013-12-19 16:02:00,39.0,22.0,-100.00,SSW,196,5.0,11.0,50,0.02,,,0.15,83.000000,,2013-12-19 21:02:00,
2013-12-19 16:11:00,39.0,22.0,-100.00,SSW,196,5.0,11.0,50,0.02,,,0.15,83.000000,,2013-12-19 21:11:00,
2013-12-19 16:43:00,34.0,22.0,-100.00,South,180,1.0,8.0,60,0.01,,,0.16,25.000000,,2013-12-19 21:43:00,
2013-12-19 16:53:00,34.0,22.0,-100.00,South,180,1.0,8.0,60,0.01,,,0.16,25.000000,,2013-12-19 21:53:00,
2013-12-19 17:03:00,34.0,22.0,-100.00,South,180,1.0,8.0,60,0.01,,,0.16,25.000000,,2013-12-19 22:03:00,
2013-12-19 17:13:00,34.0,22.0,-100.00,South,180,1.0,8.0,60,0.01,,,0.16,25.000000,,2013-12-19 22:13:00,
2013-12-19 17:43:00,31.0,22.0,-100.00,SSE,162,1.0,4.0,68,0.00,,,0.16,0.000000,,2013-12-19 22:43:00,
2013-12-19 17:53:00,31.0,22.0,-100.00,SSE,162,1.0,4.0,68,0.00,,,0.16,0.000000,,2013-12-19 22:53:00,
2013-12-19 18:03:00,31.0,22.0,-100.00,SSE,162,1.0,4.0,68,0.00,,,0.16,0.000000,,2013-12-19 23:03:00,
2013-12-19 18:13:00,31.0,22.0,-100.00,SSE,162,1.0,4.0,68,0.00,,,0.16,0.000000,,2013-12-19 23:13:00,
2013-12-19 18:42:00,27.0,20.0,-100.00,North,-999,0.0,4.0,76,0.00,,,0.16,0.000000,,2013-12-19 23:42:00,
2013-12-19 18:53:00,27.0,20.0,-100.00,North,-999,0.0,4.0,76,0.00,,,0.16,0.000000,,2013-12-19 23:53:00,
2013-12-19 19:02:00,27.0,20.0,-100.00,North,-999,0.0,4.0,76,0.00,,,0.16,0.000000,,2013-12-20 00:02:00,
2013-12-19 19:12:00,27.0,20.0,-100.00,North,-999,0.0,4.0,76,0.00,,,0.16,0.000000,,2013-12-20 00:12:00,
2013-12-19 19:42:00,31.0,22.0,-100.00,South,175,1.0,3.0,69,0.00,,,0.16,0.000000,,2013-12-20 00:42:00,
2013-12-19 19:53:00,31.0,22.0,-100.00,South,175,1.0,3.0,69,0.00,,,0.16,0.000000,,2013-12-20 00:53:00,
2013-12-19 20:02:00,31.0,22.0,-100.00,South,175,1.0,3.0,69,0.00,,,0.16,0.000000,,2013-12-20 01:02:00,
2013-12-19 20:12:00,31.0,22.0,-100.00,South,175,1.0,3.0,69,0.00,,,0.16,0.000000,,2013-12-20 01:12:00,
2013-12-19 20:42:00,32.0,23.0,-100.00,North,-999,0.0,4.0,70,0.00,,,0.16,0.000000,,2013-12-20 01:42:00,
2013-12-19 20:52:00,32.0,23.0,-100.00,North,-999,0.0,4.0,70,0.00,,,0.16,0.000000,,2013-12-20 01:52:00,
2013-12-19 21:02:00,32.0,23.0,-100.00,North,-999,0.0,4.0,70,0.00,,,0.16,0.000000,,2013-12-20 02:02:00,
2013-12-19 21:11:00,32.0,23.0,-100.00,North,-999,0.0,4.0,70,0.00,,,0.16,0.000000,,2013-12-20 02:11:00,
2013-12-19 21:42:00,31.0,24.0,-100.00,North,-999,0.0,3.0,75,0.00,,,0.16,0.000000,,2013-12-20 02:42:00,
2013-12-19 21:52:00,31.0,24.0,-100.00,North,-999,0.0,3.0,75,0.00,,,0.16,0.000000,,2013-12-20 02:52:00,
2013-12-19 22:02:00,31.0,24.0,-100.00,North,-999,0.0,3.0,75,0.00,,,0.16,0.000000,,2013-12-20 03:02:00,
2013-12-19 22:11:00,31.0,24.0,-100.00,North,-999,0.0,3.0,75,0.00,,,0.16,0.000000,,2013-12-20 03:11:00,
2013-12-19 22:44:00,30.0,24.0,-100.00,WSW,239,1.0,2.0,77,0.00,,,0.16,0.000000,,2013-12-20 03:44:00,
2013-12-19 22:53:00,30.0,24.0,-100.00,WSW,239,1.0,2.0,77,0.00,,,0.16,0.000000,,2013-12-20 03:53:00,
2013-12-19 23:03:00,30.0,24.0,-100.00,WSW,239,1.0,2.0,77,0.00,,,0.16,0.000000,,2013-12-20 04:03:00,
2013-12-19 23:13:00,30.0,24.0,-100.00,WSW,239,1.0,2.0,77,0.00,,,0.16,0.000000,,2013-12-20 04:13:00,
2013-12-19 23:43:00,30.0,22.0,-100.00,SSW,200,1.0,4.0,73,0.00,,,0.16,0.000000,,2013-12-20 04:43:00,
2013-12-19 23:53:00,30.0,22.0,-100.00,SSW,200,1.0,4.0,73,0.00,,,0.16,0.000000,,2013-12-20 04:53:00,